sensor_id;sensor_type;location;lat;lon;timestamp;P1;durP1;ratioP1;P2;durP2;ratioP2
56195;SDS011;42108;49.076;19.294;2022-07-06T00:01:36;0.93;;;0.50;;
56195;SDS011;42108;49.076;19.294;2022-07-06T00:03:37;1.23;;;0.85;;
56195;SDS011;42108;49.076;19.294;2022-07-06T00:05:39;0.90;;;0.50;;
56195;SDS011;42108;49.076;19.294;2022-07-06T00:07:40;1.30;;;0.75;;
56195;SDS011;42108;49.076;19.294;2022-07-06T00:09:41;2.38;;;0.80;;
56195;SDS011;42108;49.076;19.294;2022-07-06T00:11:42;2.15;;;0.40;;
56195;SDS011;42108;49.076;19.294;2022-07-06T00:13:43;3.72;;;0.40;;
56195;SDS011;42108;49.076;19.294;2022-07-06T00:15:44;7.93;;;0.70;;
56195;SDS011;42108;49.076;19.294;2022-07-06T00:17:45;0.73;;;0.45;;
56195;SDS011;42108;49.076;19.294;2022-07-06T00:19:47;1.05;;;0.40;;
56195;SDS011;42108;49.076;19.294;2022-07-06T00:21:48;0.68;;;0.43;;
56195;SDS011;42108;49.076;19.294;2022-07-06T00:23:49;1.48;;;0.73;;
56195;SDS011;42108;49.076;19.294;2022-07-06T00:25:52;1.58;;;0.50;;
56195;SDS011;42108;49.076;19.294;2022-07-06T00:27:54;0.98;;;0.57;;
56195;SDS011;42108;49.076;19.294;2022-07-06T00:29:55;1.13;;;0.70;;
56195;SDS011;42108;49.076;19.294;2022-07-06T00:31:57;1.23;;;0.68;;
56195;SDS011;42108;49.076;19.294;2022-07-06T00:33:58;0.82;;;0.60;;
56195;SDS011;42108;49.076;19.294;2022-07-06T00:35:59;1.05;;;0.60;;
56195;SDS011;42108;49.076;19.294;2022-07-06T00:38:00;1.30;;;0.70;;
56195;SDS011;42108;49.076;19.294;2022-07-06T00:40:02;3.00;;;0.60;;
56195;SDS011;42108;49.076;19.294;2022-07-06T00:42:03;1.27;;;0.60;;
56195;SDS011;42108;49.076;19.294;2022-07-06T00:44:07;0.95;;;0.70;;
56195;SDS011;42108;49.076;19.294;2022-07-06T00:46:10;2.88;;;0.98;;
56195;SDS011;42108;49.076;19.294;2022-07-06T00:48:11;1.33;;;0.85;;
56195;SDS011;42108;49.076;19.294;2022-07-06T00:50:14;1.17;;;0.73;;
56195;SDS011;42108;49.076;19.294;2022-07-06T00:52:23;2.05;;;1.00;;
56195;SDS011;42108;49.076;19.294;2022-07-06T00:54:25;1.40;;;1.10;;
56195;SDS011;42108;49.076;19.294;2022-07-06T00:58:30;2.13;;;1.02;;
56195;SDS011;42108;49.076;19.294;2022-07-06T01:00:32;1.60;;;1.08;;
56195;SDS011;42108;49.076;19.294;2022-07-06T01:02:34;1.50;;;1.08;;
56195;SDS011;42108;49.076;19.294;2022-07-06T01:04:36;1.90;;;0.95;;
56195;SDS011;42108;49.076;19.294;2022-07-06T01:06:37;1.50;;;1.00;;
56195;SDS011;42108;49.076;19.294;2022-07-06T01:08:39;1.50;;;0.98;;
56195;SDS011;42108;49.076;19.294;2022-07-06T01:10:40;1.50;;;1.00;;
56195;SDS011;42108;49.076;19.294;2022-07-06T01:12:42;1.45;;;1.13;;
56195;SDS011;42108;49.076;19.294;2022-07-06T01:14:44;1.30;;;0.90;;
56195;SDS011;42108;49.076;19.294;2022-07-06T01:16:45;1.45;;;0.95;;
56195;SDS011;42108;49.076;19.294;2022-07-06T01:18:46;3.58;;;1.13;;
56195;SDS011;42108;49.076;19.294;2022-07-06T01:20:47;1.67;;;0.90;;
56195;SDS011;42108;49.076;19.294;2022-07-06T01:22:49;1.33;;;0.90;;
56195;SDS011;42108;49.076;19.294;2022-07-06T01:24:52;1.25;;;0.93;;
56195;SDS011;42108;49.076;19.294;2022-07-06T01:26:53;1.38;;;1.05;;
56195;SDS011;42108;49.076;19.294;2022-07-06T01:28:54;2.25;;;1.38;;
56195;SDS011;42108;49.076;19.294;2022-07-06T01:30:55;1.98;;;1.50;;
56195;SDS011;42108;49.076;19.294;2022-07-06T01:32:56;3.50;;;1.17;;
56195;SDS011;42108;49.076;19.294;2022-07-06T01:34:58;2.22;;;1.40;;
56195;SDS011;42108;49.076;19.294;2022-07-06T01:37:01;2.15;;;1.30;;
56195;SDS011;42108;49.076;19.294;2022-07-06T01:39:02;2.38;;;0.98;;
56195;SDS011;42108;49.076;19.294;2022-07-06T01:41:06;4.85;;;1.58;;
56195;SDS011;42108;49.076;19.294;2022-07-06T01:43:07;1.33;;;0.93;;
56195;SDS011;42108;49.076;19.294;2022-07-06T01:45:08;1.85;;;1.50;;
56195;SDS011;42108;49.076;19.294;2022-07-06T01:47:10;1.92;;;1.55;;
56195;SDS011;42108;49.076;19.294;2022-07-06T01:49:11;1.60;;;1.20;;
56195;SDS011;42108;49.076;19.294;2022-07-06T01:51:14;2.17;;;1.20;;
56195;SDS011;42108;49.076;19.294;2022-07-06T01:53:15;1.75;;;1.17;;
56195;SDS011;42108;49.076;19.294;2022-07-06T01:55:16;1.77;;;1.17;;
56195;SDS011;42108;49.076;19.294;2022-07-06T01:57:17;2.30;;;1.13;;
56195;SDS011;42108;49.076;19.294;2022-07-06T01:59:19;1.85;;;1.30;;
56195;SDS011;42108;49.076;19.294;2022-07-06T02:01:20;1.40;;;1.00;;
56195;SDS011;42108;49.076;19.294;2022-07-06T02:03:23;1.70;;;1.08;;
56195;SDS011;42108;49.076;19.294;2022-07-06T02:05:25;1.70;;;1.20;;
56195;SDS011;42108;49.076;19.294;2022-07-06T02:07:27;2.40;;;1.50;;
56195;SDS011;42108;49.076;19.294;2022-07-06T02:09:29;2.75;;;0.98;;
56195;SDS011;42108;49.076;19.294;2022-07-06T02:11:30;1.83;;;1.30;;
56195;SDS011;42108;49.076;19.294;2022-07-06T02:13:31;1.60;;;1.13;;
56195;SDS011;42108;49.076;19.294;2022-07-06T02:15:34;3.90;;;1.17;;
56195;SDS011;42108;49.076;19.294;2022-07-06T02:17:35;1.80;;;1.10;;
56195;SDS011;42108;49.076;19.294;2022-07-06T02:19:36;1.98;;;1.58;;
56195;SDS011;42108;49.076;19.294;2022-07-06T02:21:37;1.58;;;1.20;;
56195;SDS011;42108;49.076;19.294;2022-07-06T02:23:38;3.35;;;1.60;;
56195;SDS011;42108;49.076;19.294;2022-07-06T02:25:40;1.80;;;1.20;;
56195;SDS011;42108;49.076;19.294;2022-07-06T02:27:41;1.77;;;1.30;;
56195;SDS011;42108;49.076;19.294;2022-07-06T02:29:42;1.90;;;1.25;;
56195;SDS011;42108;49.076;19.294;2022-07-06T02:31:43;2.10;;;1.25;;
56195;SDS011;42108;49.076;19.294;2022-07-06T02:33:44;3.65;;;1.30;;
56195;SDS011;42108;49.076;19.294;2022-07-06T02:35:45;5.57;;;1.60;;
56195;SDS011;42108;49.076;19.294;2022-07-06T02:37:46;3.47;;;0.93;;
56195;SDS011;42108;49.076;19.294;2022-07-06T02:39:47;3.17;;;1.42;;
56195;SDS011;42108;49.076;19.294;2022-07-06T02:41:48;3.85;;;1.20;;
56195;SDS011;42108;49.076;19.294;2022-07-06T02:43:49;3.67;;;1.30;;
56195;SDS011;42108;49.076;19.294;2022-07-06T02:45:50;2.65;;;1.33;;
56195;SDS011;42108;49.076;19.294;2022-07-06T02:47:52;2.33;;;1.50;;
56195;SDS011;42108;49.076;19.294;2022-07-06T02:49:55;2.30;;;1.30;;
56195;SDS011;42108;49.076;19.294;2022-07-06T02:51:58;2.63;;;1.13;;
56195;SDS011;42108;49.076;19.294;2022-07-06T02:53:59;2.70;;;0.80;;
56195;SDS011;42108;49.076;19.294;2022-07-06T02:56:00;1.85;;;1.27;;
56195;SDS011;42108;49.076;19.294;2022-07-06T02:58:01;2.88;;;0.88;;
56195;SDS011;42108;49.076;19.294;2022-07-06T03:00:02;1.88;;;1.25;;
56195;SDS011;42108;49.076;19.294;2022-07-06T03:02:05;2.00;;;1.00;;
56195;SDS011;42108;49.076;19.294;2022-07-06T03:04:06;2.35;;;0.77;;
56195;SDS011;42108;49.076;19.294;2022-07-06T03:06:07;1.83;;;0.80;;
56195;SDS011;42108;49.076;19.294;2022-07-06T03:08:08;1.00;;;0.70;;
56195;SDS011;42108;49.076;19.294;2022-07-06T03:10:09;1.77;;;0.85;;
56195;SDS011;42108;49.076;19.294;2022-07-06T03:12:12;1.08;;;0.73;;
56195;SDS011;42108;49.076;19.294;2022-07-06T03:14:14;1.55;;;0.98;;
56195;SDS011;42108;49.076;19.294;2022-07-06T03:16:15;1.05;;;0.75;;
56195;SDS011;42108;49.076;19.294;2022-07-06T03:18:16;1.38;;;0.82;;
56195;SDS011;42108;49.076;19.294;2022-07-06T03:20:17;1.50;;;0.95;;
56195;SDS011;42108;49.076;19.294;2022-07-06T03:22:18;1.20;;;0.70;;
56195;SDS011;42108;49.076;19.294;2022-07-06T03:24:19;1.10;;;0.70;;
56195;SDS011;42108;49.076;19.294;2022-07-06T03:26:20;1.50;;;1.05;;
56195;SDS011;42108;49.076;19.294;2022-07-06T03:28:21;1.50;;;0.90;;
56195;SDS011;42108;49.076;19.294;2022-07-06T03:30:22;1.27;;;0.90;;
56195;SDS011;42108;49.076;19.294;2022-07-06T03:32:24;1.83;;;0.73;;
56195;SDS011;42108;49.076;19.294;2022-07-06T03:34:25;1.20;;;0.80;;
56195;SDS011;42108;49.076;19.294;2022-07-06T03:36:27;1.77;;;1.00;;
56195;SDS011;42108;49.076;19.294;2022-07-06T03:38:28;1.20;;;0.63;;
56195;SDS011;42108;49.076;19.294;2022-07-06T03:40:29;1.00;;;0.70;;
56195;SDS011;42108;49.076;19.294;2022-07-06T03:42:30;1.88;;;1.10;;
56195;SDS011;42108;49.076;19.294;2022-07-06T03:44:31;0.95;;;0.68;;
56195;SDS011;42108;49.076;19.294;2022-07-06T03:46:32;1.85;;;1.02;;
56195;SDS011;42108;49.076;19.294;2022-07-06T03:48:33;1.42;;;0.95;;
56195;SDS011;42108;49.076;19.294;2022-07-06T03:50:34;1.38;;;0.90;;
56195;SDS011;42108;49.076;19.294;2022-07-06T03:52:35;1.40;;;1.00;;
56195;SDS011;42108;49.076;19.294;2022-07-06T03:54:40;1.98;;;1.48;;
56195;SDS011;42108;49.076;19.294;2022-07-06T03:56:41;2.65;;;1.38;;
56195;SDS011;42108;49.076;19.294;2022-07-06T03:58:42;2.20;;;1.42;;
56195;SDS011;42108;49.076;19.294;2022-07-06T04:00:43;1.65;;;1.08;;
56195;SDS011;42108;49.076;19.294;2022-07-06T04:02:45;5.80;;;1.50;;
56195;SDS011;42108;49.076;19.294;2022-07-06T04:04:47;1.67;;;1.08;;
56195;SDS011;42108;49.076;19.294;2022-07-06T04:06:48;2.05;;;0.85;;
56195;SDS011;42108;49.076;19.294;2022-07-06T04:08:49;1.75;;;1.40;;
56195;SDS011;42108;49.076;19.294;2022-07-06T04:10:50;2.20;;;1.42;;
56195;SDS011;42108;49.076;19.294;2022-07-06T04:12:52;1.55;;;1.20;;
56195;SDS011;42108;49.076;19.294;2022-07-06T04:14:55;1.77;;;1.15;;
56195;SDS011;42108;49.076;19.294;2022-07-06T04:16:57;1.88;;;1.30;;
56195;SDS011;42108;49.076;19.294;2022-07-06T04:18:58;5.00;;;1.38;;
56195;SDS011;42108;49.076;19.294;2022-07-06T04:20:59;2.30;;;1.20;;
56195;SDS011;42108;49.076;19.294;2022-07-06T04:23:00;2.03;;;1.33;;
56195;SDS011;42108;49.076;19.294;2022-07-06T04:25:01;1.58;;;1.35;;
56195;SDS011;42108;49.076;19.294;2022-07-06T04:27:02;2.30;;;1.30;;
56195;SDS011;42108;49.076;19.294;2022-07-06T04:29:04;1.98;;;1.58;;
56195;SDS011;42108;49.076;19.294;2022-07-06T04:31:05;2.28;;;1.48;;
56195;SDS011;42108;49.076;19.294;2022-07-06T04:33:06;2.65;;;1.75;;
56195;SDS011;42108;49.076;19.294;2022-07-06T04:35:07;1.95;;;1.42;;
56195;SDS011;42108;49.076;19.294;2022-07-06T04:37:09;2.58;;;1.80;;
56195;SDS011;42108;49.076;19.294;2022-07-06T04:39:10;1.85;;;1.45;;
56195;SDS011;42108;49.076;19.294;2022-07-06T04:41:12;2.55;;;1.80;;
56195;SDS011;42108;49.076;19.294;2022-07-06T04:43:13;6.55;;;1.60;;
56195;SDS011;42108;49.076;19.294;2022-07-06T04:45:14;2.10;;;1.23;;
56195;SDS011;42108;49.076;19.294;2022-07-06T04:47:15;2.72;;;1.20;;
56195;SDS011;42108;49.076;19.294;2022-07-06T04:49:17;7.32;;;1.65;;
56195;SDS011;42108;49.076;19.294;2022-07-06T04:51:18;2.08;;;1.40;;
56195;SDS011;42108;49.076;19.294;2022-07-06T04:53:19;2.80;;;1.45;;
56195;SDS011;42108;49.076;19.294;2022-07-06T04:55:20;1.60;;;1.15;;
56195;SDS011;42108;49.076;19.294;2022-07-06T04:57:21;1.35;;;0.93;;
56195;SDS011;42108;49.076;19.294;2022-07-06T04:59:22;2.28;;;1.38;;
56195;SDS011;42108;49.076;19.294;2022-07-06T05:01:23;2.05;;;1.35;;
56195;SDS011;42108;49.076;19.294;2022-07-06T05:03:24;1.75;;;1.25;;
56195;SDS011;42108;49.076;19.294;2022-07-06T05:05:26;2.35;;;1.23;;
56195;SDS011;42108;49.076;19.294;2022-07-06T05:07:27;2.25;;;1.10;;
56195;SDS011;42108;49.076;19.294;2022-07-06T05:09:30;1.77;;;1.25;;
56195;SDS011;42108;49.076;19.294;2022-07-06T05:11:31;1.73;;;1.25;;
56195;SDS011;42108;49.076;19.294;2022-07-06T05:13:33;3.47;;;1.45;;
56195;SDS011;42108;49.076;19.294;2022-07-06T05:15:34;3.08;;;2.00;;
56195;SDS011;42108;49.076;19.294;2022-07-06T05:17:35;3.22;;;1.85;;
56195;SDS011;42108;49.076;19.294;2022-07-06T05:19:36;2.58;;;1.55;;
56195;SDS011;42108;49.076;19.294;2022-07-06T05:21:38;2.65;;;1.90;;
56195;SDS011;42108;49.076;19.294;2022-07-06T05:23:39;3.20;;;2.03;;
56195;SDS011;42108;49.076;19.294;2022-07-06T05:25:40;2.10;;;1.60;;
56195;SDS011;42108;49.076;19.294;2022-07-06T05:27:41;1.75;;;1.13;;
56195;SDS011;42108;49.076;19.294;2022-07-06T05:29:42;3.83;;;1.60;;
56195;SDS011;42108;49.076;19.294;2022-07-06T05:31:43;3.35;;;1.92;;
56195;SDS011;42108;49.076;19.294;2022-07-06T05:33:45;5.00;;;2.30;;
56195;SDS011;42108;49.076;19.294;2022-07-06T05:35:46;2.83;;;2.15;;
56195;SDS011;42108;49.076;19.294;2022-07-06T05:37:48;3.63;;;2.63;;
56195;SDS011;42108;49.076;19.294;2022-07-06T05:39:49;3.80;;;2.70;;
56195;SDS011;42108;49.076;19.294;2022-07-06T05:41:51;2.95;;;2.65;;
56195;SDS011;42108;49.076;19.294;2022-07-06T05:43:52;4.38;;;3.13;;
56195;SDS011;42108;49.076;19.294;2022-07-06T05:45:53;5.18;;;3.30;;
56195;SDS011;42108;49.076;19.294;2022-07-06T05:47:53;3.53;;;3.10;;
56195;SDS011;42108;49.076;19.294;2022-07-06T05:50:13;5.25;;;2.90;;
56195;SDS011;42108;49.076;19.294;2022-07-06T05:52:14;5.22;;;3.33;;
56195;SDS011;42108;49.076;19.294;2022-07-06T05:54:15;4.70;;;2.60;;
56195;SDS011;42108;49.076;19.294;2022-07-06T05:56:16;3.70;;;2.92;;
56195;SDS011;42108;49.076;19.294;2022-07-06T05:58:17;4.93;;;3.00;;
56195;SDS011;42108;49.076;19.294;2022-07-06T06:00:19;5.85;;;3.20;;
56195;SDS011;42108;49.076;19.294;2022-07-06T06:02:21;3.65;;;2.88;;
56195;SDS011;42108;49.076;19.294;2022-07-06T06:04:22;3.92;;;2.75;;
56195;SDS011;42108;49.076;19.294;2022-07-06T06:06:24;4.38;;;3.42;;
56195;SDS011;42108;49.076;19.294;2022-07-06T06:08:25;4.57;;;2.85;;
56195;SDS011;42108;49.076;19.294;2022-07-06T06:10:26;5.20;;;3.67;;
56195;SDS011;42108;49.076;19.294;2022-07-06T06:12:27;5.68;;;3.38;;
56195;SDS011;42108;49.076;19.294;2022-07-06T06:14:28;6.28;;;3.38;;
56195;SDS011;42108;49.076;19.294;2022-07-06T06:16:29;3.83;;;3.10;;
56195;SDS011;42108;49.076;19.294;2022-07-06T06:18:30;6.28;;;3.67;;
56195;SDS011;42108;49.076;19.294;2022-07-06T06:20:31;4.13;;;3.40;;
56195;SDS011;42108;49.076;19.294;2022-07-06T06:22:49;5.20;;;3.72;;
56195;SDS011;42108;49.076;19.294;2022-07-06T06:24:51;4.90;;;3.20;;
56195;SDS011;42108;49.076;19.294;2022-07-06T06:26:53;5.32;;;3.92;;
56195;SDS011;42108;49.076;19.294;2022-07-06T06:28:54;5.22;;;3.70;;
56195;SDS011;42108;49.076;19.294;2022-07-06T06:30:55;3.92;;;3.25;;
56195;SDS011;42108;49.076;19.294;2022-07-06T06:33:12;5.47;;;3.90;;
56195;SDS011;42108;49.076;19.294;2022-07-06T06:35:14;4.43;;;3.58;;
56195;SDS011;42108;49.076;19.294;2022-07-06T06:37:15;4.35;;;3.83;;
56195;SDS011;42108;49.076;19.294;2022-07-06T06:39:16;3.70;;;3.20;;
56195;SDS011;42108;49.076;19.294;2022-07-06T06:41:18;4.60;;;3.42;;
56195;SDS011;42108;49.076;19.294;2022-07-06T06:43:21;4.40;;;3.28;;
56195;SDS011;42108;49.076;19.294;2022-07-06T06:45:22;4.60;;;3.75;;
56195;SDS011;42108;49.076;19.294;2022-07-06T06:47:23;4.35;;;3.58;;
56195;SDS011;42108;49.076;19.294;2022-07-06T06:49:24;4.85;;;3.92;;
56195;SDS011;42108;49.076;19.294;2022-07-06T06:51:25;6.32;;;3.97;;
56195;SDS011;42108;49.076;19.294;2022-07-06T06:53:26;6.20;;;3.60;;
56195;SDS011;42108;49.076;19.294;2022-07-06T06:55:27;6.85;;;4.85;;
56195;SDS011;42108;49.076;19.294;2022-07-06T06:57:28;4.20;;;3.58;;
56195;SDS011;42108;49.076;19.294;2022-07-06T06:59:29;5.10;;;3.42;;
56195;SDS011;42108;49.076;19.294;2022-07-06T07:01:30;7.03;;;3.38;;
56195;SDS011;42108;49.076;19.294;2022-07-06T07:03:34;4.50;;;3.50;;
56195;SDS011;42108;49.076;19.294;2022-07-06T07:05:35;6.75;;;3.85;;
56195;SDS011;42108;49.076;19.294;2022-07-06T07:07:36;4.43;;;3.33;;
56195;SDS011;42108;49.076;19.294;2022-07-06T07:09:37;4.65;;;3.25;;
56195;SDS011;42108;49.076;19.294;2022-07-06T07:11:38;5.25;;;3.63;;
56195;SDS011;42108;49.076;19.294;2022-07-06T07:13:39;6.93;;;3.88;;
56195;SDS011;42108;49.076;19.294;2022-07-06T07:15:41;5.45;;;3.80;;
56195;SDS011;42108;49.076;19.294;2022-07-06T07:17:42;6.22;;;3.55;;
56195;SDS011;42108;49.076;19.294;2022-07-06T07:19:43;6.25;;;4.28;;
56195;SDS011;42108;49.076;19.294;2022-07-06T07:21:44;4.43;;;3.35;;
56195;SDS011;42108;49.076;19.294;2022-07-06T07:23:45;4.22;;;3.33;;
56195;SDS011;42108;49.076;19.294;2022-07-06T07:25:46;5.55;;;3.28;;
56195;SDS011;42108;49.076;19.294;2022-07-06T07:27:47;6.47;;;3.83;;
56195;SDS011;42108;49.076;19.294;2022-07-06T07:29:48;4.72;;;3.20;;
56195;SDS011;42108;49.076;19.294;2022-07-06T07:31:49;4.50;;;3.35;;
56195;SDS011;42108;49.076;19.294;2022-07-06T07:33:50;3.70;;;2.88;;
56195;SDS011;42108;49.076;19.294;2022-07-06T07:35:52;6.70;;;3.40;;
56195;SDS011;42108;49.076;19.294;2022-07-06T07:37:53;6.82;;;4.07;;
56195;SDS011;42108;49.076;19.294;2022-07-06T07:39:54;4.28;;;3.30;;
56195;SDS011;42108;49.076;19.294;2022-07-06T07:41:55;5.95;;;3.25;;
56195;SDS011;42108;49.076;19.294;2022-07-06T07:43:56;5.20;;;2.80;;
56195;SDS011;42108;49.076;19.294;2022-07-06T07:45:57;6.22;;;3.40;;
56195;SDS011;42108;49.076;19.294;2022-07-06T07:47:58;4.20;;;3.20;;
56195;SDS011;42108;49.076;19.294;2022-07-06T07:50:00;3.75;;;3.08;;
56195;SDS011;42108;49.076;19.294;2022-07-06T07:52:02;4.50;;;3.53;;
56195;SDS011;42108;49.076;19.294;2022-07-06T07:54:04;4.18;;;3.47;;
56195;SDS011;42108;49.076;19.294;2022-07-06T07:56:06;3.53;;;2.67;;
56195;SDS011;42108;49.076;19.294;2022-07-06T07:58:08;4.22;;;2.42;;
56195;SDS011;42108;49.076;19.294;2022-07-06T08:00:10;3.40;;;2.65;;
56195;SDS011;42108;49.076;19.294;2022-07-06T08:02:12;3.33;;;2.60;;
56195;SDS011;42108;49.076;19.294;2022-07-06T08:04:14;3.38;;;2.50;;
56195;SDS011;42108;49.076;19.294;2022-07-06T08:06:15;4.22;;;2.45;;
56195;SDS011;42108;49.076;19.294;2022-07-06T08:08:17;4.97;;;2.10;;
56195;SDS011;42108;49.076;19.294;2022-07-06T08:10:18;3.25;;;2.17;;
56195;SDS011;42108;49.076;19.294;2022-07-06T08:12:20;4.00;;;2.08;;
56195;SDS011;42108;49.076;19.294;2022-07-06T08:14:21;4.57;;;2.20;;
56195;SDS011;42108;49.076;19.294;2022-07-06T08:16:22;3.72;;;2.05;;
56195;SDS011;42108;49.076;19.294;2022-07-06T08:18:23;3.63;;;2.25;;
56195;SDS011;42108;49.076;19.294;2022-07-06T08:20:24;2.85;;;2.30;;
56195;SDS011;42108;49.076;19.294;2022-07-06T08:22:25;5.32;;;2.28;;
56195;SDS011;42108;49.076;19.294;2022-07-06T08:24:27;4.70;;;1.95;;
56195;SDS011;42108;49.076;19.294;2022-07-06T08:26:28;5.15;;;2.10;;
56195;SDS011;42108;49.076;19.294;2022-07-06T08:28:29;3.88;;;2.05;;
56195;SDS011;42108;49.076;19.294;2022-07-06T08:30:30;5.32;;;2.10;;
56195;SDS011;42108;49.076;19.294;2022-07-06T08:32:38;2.95;;;2.15;;
56195;SDS011;42108;49.076;19.294;2022-07-06T08:34:40;3.22;;;2.10;;
56195;SDS011;42108;49.076;19.294;2022-07-06T08:36:43;3.40;;;1.73;;
56195;SDS011;42108;49.076;19.294;2022-07-06T08:38:44;2.25;;;1.60;;
56195;SDS011;42108;49.076;19.294;2022-07-06T08:40:47;2.58;;;1.98;;
56195;SDS011;42108;49.076;19.294;2022-07-06T08:44:54;3.63;;;1.90;;
56195;SDS011;42108;49.076;19.294;2022-07-06T08:46:58;5.38;;;2.00;;
56195;SDS011;42108;49.076;19.294;2022-07-06T08:49:05;2.90;;;1.65;;
56195;SDS011;42108;49.076;19.294;2022-07-06T08:51:07;3.35;;;1.80;;
56195;SDS011;42108;49.076;19.294;2022-07-06T08:53:09;2.80;;;1.65;;
56195;SDS011;42108;49.076;19.294;2022-07-06T08:55:10;3.25;;;1.80;;
56195;SDS011;42108;49.076;19.294;2022-07-06T08:57:12;3.67;;;1.67;;
56195;SDS011;42108;49.076;19.294;2022-07-06T08:59:13;5.25;;;1.70;;
56195;SDS011;42108;49.076;19.294;2022-07-06T09:01:15;3.50;;;1.88;;
56195;SDS011;42108;49.076;19.294;2022-07-06T09:03:17;2.92;;;1.60;;
56195;SDS011;42108;49.076;19.294;2022-07-06T09:05:18;2.50;;;1.20;;
56195;SDS011;42108;49.076;19.294;2022-07-06T09:07:23;4.05;;;1.58;;
56195;SDS011;42108;49.076;19.294;2022-07-06T09:09:29;2.20;;;1.20;;
56195;SDS011;42108;49.076;19.294;2022-07-06T09:11:34;3.58;;;1.65;;
56195;SDS011;42108;49.076;19.294;2022-07-06T09:13:36;2.92;;;1.50;;
56195;SDS011;42108;49.076;19.294;2022-07-06T09:15:37;6.03;;;1.05;;
56195;SDS011;42108;49.076;19.294;2022-07-06T09:17:42;2.83;;;1.23;;
56195;SDS011;42108;49.076;19.294;2022-07-06T09:19:44;4.70;;;1.70;;
56195;SDS011;42108;49.076;19.294;2022-07-06T09:21:45;2.20;;;1.15;;
56195;SDS011;42108;49.076;19.294;2022-07-06T09:23:46;3.00;;;1.60;;
56195;SDS011;42108;49.076;19.294;2022-07-06T09:25:48;1.92;;;1.27;;
56195;SDS011;42108;49.076;19.294;2022-07-06T09:27:50;4.68;;;1.60;;
56195;SDS011;42108;49.076;19.294;2022-07-06T09:29:54;5.13;;;1.70;;
56195;SDS011;42108;49.076;19.294;2022-07-06T09:32:03;2.65;;;1.50;;
56195;SDS011;42108;49.076;19.294;2022-07-06T09:34:06;4.65;;;1.60;;
56195;SDS011;42108;49.076;19.294;2022-07-06T09:36:10;4.80;;;1.80;;
56195;SDS011;42108;49.076;19.294;2022-07-06T09:38:12;2.40;;;1.60;;
56195;SDS011;42108;49.076;19.294;2022-07-06T09:40:17;2.55;;;1.55;;
56195;SDS011;42108;49.076;19.294;2022-07-06T09:42:23;3.85;;;1.92;;
56195;SDS011;42108;49.076;19.294;2022-07-06T09:44:28;2.83;;;1.60;;
56195;SDS011;42108;49.076;19.294;2022-07-06T09:46:45;2.80;;;1.70;;
56195;SDS011;42108;49.076;19.294;2022-07-06T09:48:47;3.95;;;2.08;;
56195;SDS011;42108;49.076;19.294;2022-07-06T09:52:55;4.38;;;2.67;;
56195;SDS011;42108;49.076;19.294;2022-07-06T09:54:56;4.40;;;2.00;;
56195;SDS011;42108;49.076;19.294;2022-07-06T09:56:57;6.63;;;2.13;;
56195;SDS011;42108;49.076;19.294;2022-07-06T09:58:58;4.32;;;1.95;;
56195;SDS011;42108;49.076;19.294;2022-07-06T10:00:59;4.95;;;2.30;;
56195;SDS011;42108;49.076;19.294;2022-07-06T10:03:00;2.95;;;1.88;;
56195;SDS011;42108;49.076;19.294;2022-07-06T10:05:03;2.60;;;1.88;;
56195;SDS011;42108;49.076;19.294;2022-07-06T10:07:05;4.35;;;2.35;;
56195;SDS011;42108;49.076;19.294;2022-07-06T10:09:08;5.07;;;1.70;;
56195;SDS011;42108;49.076;19.294;2022-07-06T10:11:11;6.97;;;1.90;;
56195;SDS011;42108;49.076;19.294;2022-07-06T10:13:15;3.65;;;2.13;;
56195;SDS011;42108;49.076;19.294;2022-07-06T10:15:22;5.57;;;3.33;;
56195;SDS011;42108;49.076;19.294;2022-07-06T10:17:26;6.07;;;2.80;;
56195;SDS011;42108;49.076;19.294;2022-07-06T10:19:28;4.72;;;3.38;;
56195;SDS011;42108;49.076;19.294;2022-07-06T10:21:30;3.20;;;2.60;;
56195;SDS011;42108;49.076;19.294;2022-07-06T10:23:33;4.82;;;3.30;;
56195;SDS011;42108;49.076;19.294;2022-07-06T10:25:36;5.53;;;3.25;;
56195;SDS011;42108;49.076;19.294;2022-07-06T10:27:39;5.85;;;3.40;;
56195;SDS011;42108;49.076;19.294;2022-07-06T10:29:41;4.83;;;3.33;;
56195;SDS011;42108;49.076;19.294;2022-07-06T10:31:46;6.10;;;3.85;;
56195;SDS011;42108;49.076;19.294;2022-07-06T10:33:48;6.72;;;3.47;;
56195;SDS011;42108;49.076;19.294;2022-07-06T10:35:49;5.07;;;4.00;;
56195;SDS011;42108;49.076;19.294;2022-07-06T10:38:04;7.57;;;3.50;;
56195;SDS011;42108;49.076;19.294;2022-07-06T10:40:07;6.53;;;3.90;;
56195;SDS011;42108;49.076;19.294;2022-07-06T10:45:03;7.07;;;4.50;;
56195;SDS011;42108;49.076;19.294;2022-07-06T10:47:04;9.70;;;4.15;;
56195;SDS011;42108;49.076;19.294;2022-07-06T10:49:14;5.93;;;4.03;;
56195;SDS011;42108;49.076;19.294;2022-07-06T10:51:27;5.43;;;4.22;;
56195;SDS011;42108;49.076;19.294;2022-07-06T10:53:33;7.40;;;4.65;;
56195;SDS011;42108;49.076;19.294;2022-07-06T10:55:42;5.20;;;4.15;;
56195;SDS011;42108;49.076;19.294;2022-07-06T11:00:03;7.60;;;4.85;;
56195;SDS011;42108;49.076;19.294;2022-07-06T11:02:12;7.43;;;5.10;;
56195;SDS011;42108;49.076;19.294;2022-07-06T11:04:15;6.18;;;4.93;;
56195;SDS011;42108;49.076;19.294;2022-07-06T11:06:17;6.85;;;5.28;;
56195;SDS011;42108;49.076;19.294;2022-07-06T11:08:18;7.28;;;5.63;;
56195;SDS011;42108;49.076;19.294;2022-07-06T11:10:20;7.05;;;5.95;;
56195;SDS011;42108;49.076;19.294;2022-07-06T11:12:23;5.68;;;4.70;;
56195;SDS011;42108;49.076;19.294;2022-07-06T11:14:25;8.10;;;5.40;;
56195;SDS011;42108;49.076;19.294;2022-07-06T11:16:27;7.55;;;5.20;;
56195;SDS011;42108;49.076;19.294;2022-07-06T11:18:40;8.18;;;4.65;;
56195;SDS011;42108;49.076;19.294;2022-07-06T11:20:42;7.68;;;5.47;;
56195;SDS011;42108;49.076;19.294;2022-07-06T11:22:43;7.63;;;5.13;;
56195;SDS011;42108;49.076;19.294;2022-07-06T11:24:45;6.82;;;5.35;;
56195;SDS011;42108;49.076;19.294;2022-07-06T11:26:48;8.88;;;5.50;;
56195;SDS011;42108;49.076;19.294;2022-07-06T11:28:50;9.93;;;6.10;;
56195;SDS011;42108;49.076;19.294;2022-07-06T11:30:52;6.00;;;4.95;;
56195;SDS011;42108;49.076;19.294;2022-07-06T11:32:53;10.20;;;5.50;;
56195;SDS011;42108;49.076;19.294;2022-07-06T11:34:55;7.85;;;4.97;;
56195;SDS011;42108;49.076;19.294;2022-07-06T11:39:14;5.32;;;4.03;;
56195;SDS011;42108;49.076;19.294;2022-07-06T11:41:17;5.80;;;4.97;;
56195;SDS011;42108;49.076;19.294;2022-07-06T11:43:18;6.35;;;4.80;;
56195;SDS011;42108;49.076;19.294;2022-07-06T11:45:30;7.13;;;4.15;;
56195;SDS011;42108;49.076;19.294;2022-07-06T11:47:31;4.40;;;3.33;;
56195;SDS011;42108;49.076;19.294;2022-07-06T11:49:33;3.97;;;3.15;;
56195;SDS011;42108;49.076;19.294;2022-07-06T11:51:38;7.27;;;3.40;;
56195;SDS011;42108;49.076;19.294;2022-07-06T11:53:44;5.10;;;2.85;;
56195;SDS011;42108;49.076;19.294;2022-07-06T11:55:49;4.80;;;3.22;;
56195;SDS011;42108;49.076;19.294;2022-07-06T11:57:50;8.02;;;2.80;;
56195;SDS011;42108;49.076;19.294;2022-07-06T11:59:56;4.30;;;2.80;;
56195;SDS011;42108;49.076;19.294;2022-07-06T12:02:01;4.25;;;2.58;;
56195;SDS011;42108;49.076;19.294;2022-07-06T12:04:04;8.13;;;2.50;;
56195;SDS011;42108;49.076;19.294;2022-07-06T12:06:06;3.78;;;2.10;;
56195;SDS011;42108;49.076;19.294;2022-07-06T12:08:13;5.15;;;2.20;;
56195;SDS011;42108;49.076;19.294;2022-07-06T12:10:14;3.30;;;2.35;;
56195;SDS011;42108;49.076;19.294;2022-07-06T12:12:36;4.78;;;2.70;;
56195;SDS011;42108;49.076;19.294;2022-07-06T12:14:38;3.28;;;2.15;;
56195;SDS011;42108;49.076;19.294;2022-07-06T12:16:41;6.87;;;2.23;;
56195;SDS011;42108;49.076;19.294;2022-07-06T12:18:43;3.08;;;1.98;;